Thunder radar more information blitzortung!


Radar de pluja more information rain snow radar


Visita la nostra xarxa de llocs de meteo:

Template documentation
and downloads

And another site



No particular awareness of the weather is required.    There are no Weather-warnings

Pagina Historial Weather Underground text

Diari Resum Juliol 31, 2017 Unitats:  Imperial    Mètric   Tant
« Previous Dia
SegĂźent Dia »
Diari Setmana Mensual Anual Personalitzada
  Maxima: Minima: Media:
Temperatura: TemperatureC °F 21.7 °F 28.1 °F
Punt de rosada: DewpointC °F 16.2 °F 18.4 °F
Humitat: Humidity % 43 % 57 %
Wind Speed: WindSpeedKMH mph 0.0 mph 11.2 mph
RĂ fegues de vent: WindSpeedGustKMH mph - -
Vent:- - East
Pression baro: PressurehPa in 1007.0 in -
Precipitacions: 0.0 in    
Historical Graphs
 
 
Dades de taula per Juliol 31, 2017
Temps Temperatura Punt de rosada Pression baro Vent Wind Speed RĂ fegues de vent Humitat Rainfall Rate (Hourly)
TemperatureC °F DewpointC °F PressurehPa in Calm     Humidity % HourlyPrecipMM in
00:00 22.5 °F 17.0 °F 1010.0 in NE 4.8 mph 6.4 mph 71 % 0.0 in
00:01 24.2 °F 18.8 °F 1010.0 in SW 1.9 mph 1.9 mph 72 % 0.0 in
00:06 24.2 °F 19.1 °F 1010.0 in Calm     73 % 0.0 in
00:10 22.4 °F 16.9 °F 1010.0 in NE 3.2 mph 4.8 mph 71 % 0.0 in
00:11 24.2 °F 19.1 °F 1010.0 in ENE 3.2 mph 3.2 mph 73 % 0.0 in
00:20 22.4 °F 16.9 °F 1010.0 in NNE 3.2 mph 6.4 mph 71 % 0.0 in
00:30 22.4 °F 16.9 °F 1010.0 in NNE 4.8 mph 6.4 mph 71 % 0.0 in
00:40 22.4 °F 16.9 °F 1010.0 in NNE 4.8 mph 6.4 mph 71 % 0.0 in
00:50 22.4 °F 16.9 °F 1010.0 in NNE 4.8 mph 6.4 mph 71 % 0.0 in
01:00 22.3 °F 17.0 °F 1010.0 in NE 4.8 mph 4.8 mph 72 % 0.0 in
01:10 22.3 °F 17.0 °F 1010.0 in NE 4.8 mph 6.4 mph 72 % 0.0 in
01:20 22.2 °F 16.7 °F 1010.0 in NE 4.8 mph 4.8 mph 71 % 0.0 in
01:30 22.2 °F 16.9 °F 1010.0 in NE 4.8 mph 6.4 mph 72 % 0.0 in
01:40 22.1 °F 16.8 °F 1010.0 in NE 4.8 mph 6.4 mph 72 % 0.0 in
01:50 22.0 °F 16.7 °F 1010.0 in NNE 4.8 mph 6.4 mph 72 % 0.0 in
02:00 21.8 °F 16.7 °F 1010.0 in NNE 3.2 mph 4.8 mph 73 % 0.0 in
02:10 21.7 °F 16.4 °F 1010.0 in NNE 3.2 mph 4.8 mph 72 % 0.0 in
02:20 21.7 °F 16.2 °F 1010.0 in NNE 1.6 mph 4.8 mph 71 % 0.0 in
02:30 21.9 °F 16.4 °F 1010.0 in NNE 1.6 mph 4.8 mph 71 % 0.0 in
02:40 22.3 °F 16.3 °F 1010.0 in NNE 3.2 mph 4.8 mph 69 % 0.0 in
02:50 22.6 °F 16.6 °F 1009.0 in NNE 3.2 mph 4.8 mph 69 % 0.0 in
03:00 22.9 °F 16.7 °F 1009.0 in NE 3.2 mph 4.8 mph 68 % 0.0 in
03:10 23.2 °F 17.2 °F 1009.0 in ENE 4.8 mph 4.8 mph 69 % 0.0 in
03:20 23.5 °F 17.5 °F 1010.0 in ENE 4.8 mph 4.8 mph 69 % 0.0 in
03:30 23.7 °F 17.7 °F 1010.0 in ENE 4.8 mph 6.4 mph 69 % 0.0 in
03:40 23.9 °F 17.9 °F 1009.0 in East 3.2 mph 4.8 mph 69 % 0.0 in
03:50 24.4 °F 18.1 °F 1010.0 in ENE 4.8 mph 6.4 mph 68 % 0.0 in
04:00 24.4 °F 18.1 °F 1010.0 in ENE 4.8 mph 6.4 mph 68 % 0.0 in
04:10 24.7 °F 18.2 °F 1009.0 in ENE 4.8 mph 8.0 mph 67 % 0.0 in
04:20 25.1 °F 18.3 °F 1010.0 in ENE 4.8 mph 8.0 mph 66 % 0.0 in
04:30 25.3 °F 18.5 °F 1010.0 in East 4.8 mph 8.0 mph 66 % 0.0 in
04:40 25.4 °F 18.3 °F 1010.0 in ESE 8.0 mph 8.0 mph 65 % 0.0 in
04:50 26.3 °F 18.9 °F 1010.0 in ESE 3.2 mph 8.0 mph 64 % 0.0 in
05:00 26.5 °F 18.6 °F 1010.0 in East 9.7 mph 9.7 mph 62 % 0.0 in
05:10 26.8 °F 18.4 °F 1010.0 in ENE 8.0 mph 9.7 mph 60 % 0.0 in
05:20 27.0 °F 18.3 °F 1010.0 in East 4.8 mph 6.4 mph 59 % 0.0 in
05:30 27.0 °F 18.1 °F 1010.0 in East 8.0 mph 9.7 mph 58 % 0.0 in
05:40 27.6 °F 18.3 °F 1010.0 in East 11.3 mph 19.3 mph 57 % 0.0 in
05:50 27.7 °F 17.8 °F 1010.0 in East 4.8 mph 12.9 mph 55 % 0.0 in
06:00 27.8 °F 17.3 °F 1010.0 in East 8.0 mph 16.1 mph 53 % 0.0 in
11:03 28.2 °F 17.4 °F 1010.0 in ENE 16.1 mph 16.1 mph 52 % 0.0 in
11:08 28.3 °F 17.5 °F 1010.0 in ENE 13.0 mph 13.0 mph 52 % 0.0 in
11:13 28.6 °F 17.4 °F 1010.0 in ESE 9.7 mph 9.7 mph 51 % 0.0 in
11:18 28.8 °F 17.7 °F 1009.0 in NNW 15.1 mph 15.1 mph 51 % 0.0 in
11:23 29.0 °F 17.5 °F 1009.0 in ESE 14.8 mph 14.8 mph 50 % 0.0 in
11:28 29.1 °F 17.6 °F 1009.0 in North 14.8 mph 14.8 mph 50 % 0.0 in
11:33 29.4 °F 17.9 °F 1010.0 in ENE 13.0 mph 13.0 mph 50 % 0.0 in
11:38 29.8 °F 18.3 °F 1010.0 in NNE 8.7 mph 8.7 mph 50 % 0.0 in
11:43 29.9 °F 18.1 °F 1010.0 in East 11.4 mph 11.4 mph 49 % 0.0 in
11:48 29.8 °F 18.3 °F 1010.0 in ENE 15.1 mph 15.1 mph 50 % 0.0 in
11:53 29.6 °F 18.1 °F 1010.0 in ESE 13.0 mph 13.0 mph 50 % 0.0 in
11:58 29.6 °F 17.8 °F 1010.0 in ESE 13.0 mph 13.0 mph 49 % 0.0 in
12:03 30.3 °F 18.4 °F 1010.0 in SE 9.3 mph 9.3 mph 49 % 0.0 in
12:08 30.4 °F 17.8 °F 1010.0 in ENE 14.0 mph 14.0 mph 47 % 0.0 in
12:13 30.1 °F 17.2 °F 1010.0 in ENE 11.1 mph 11.1 mph 46 % 0.0 in
12:18 30.2 °F 17.3 °F 1009.0 in ESE 11.1 mph 11.1 mph 46 % 0.0 in
12:23 30.4 °F 17.5 °F 1009.0 in East 13.0 mph 13.0 mph 46 % 0.0 in
12:28 30.7 °F 17.4 °F 1009.0 in ENE 22.2 mph 22.2 mph 45 % 0.0 in
12:33 30.6 °F 17.7 °F 1009.0 in ENE 13.0 mph 13.0 mph 46 % 0.0 in
12:38 30.7 °F 17.8 °F 1009.0 in ESE 13.0 mph 13.0 mph 46 % 0.0 in
12:43 30.7 °F 17.8 °F 1009.0 in SE 13.0 mph 13.0 mph 46 % 0.0 in
12:48 30.7 °F 17.8 °F 1009.0 in SW 13.0 mph 13.0 mph 46 % 0.0 in
12:53 30.8 °F 17.5 °F 1009.0 in ESE 22.2 mph 22.2 mph 45 % 0.0 in
12:58 31.1 °F 17.8 °F 1009.0 in NE 9.3 mph 9.3 mph 45 % 0.0 in
13:03 31.0 °F 17.7 °F 1008.0 in NNE 9.3 mph 9.7 mph 45 % 0.0 in
13:08 30.6 °F 17.3 °F 1008.0 in East 18.5 mph 18.5 mph 45 % 0.0 in
13:13 31.3 °F 17.9 °F 1008.0 in ESE 9.7 mph 9.7 mph 45 % 0.0 in
13:18 31.5 °F 18.1 °F 1009.0 in ESE 20.4 mph 20.4 mph 45 % 0.0 in
13:23 31.1 °F 17.4 °F 1009.0 in ESE 13.0 mph 13.0 mph 44 % 0.0 in
13:28 31.2 °F 17.5 °F 1009.0 in ENE 16.9 mph 16.9 mph 44 % 0.0 in
13:33 31.6 °F 17.8 °F 1008.0 in SE 13.0 mph 13.0 mph 44 % 0.0 in
13:38 31.8 °F 18.1 °F 1008.0 in SE 16.7 mph 16.7 mph 44 % 0.0 in
13:43 31.7 °F 17.9 °F 1008.0 in East 7.9 mph 7.9 mph 44 % 0.0 in
13:48 31.9 °F 18.1 °F 1008.0 in East 13.0 mph 13.0 mph 44 % 0.0 in
13:53 31.6 °F 17.8 °F 1008.0 in East 14.8 mph 14.8 mph 44 % 0.0 in
13:58 31.5 °F 17.8 °F 1008.0 in ESE 9.3 mph 10.0 mph 44 % 0.0 in
14:03 31.8 °F 18.1 °F 1009.0 in ESE 14.8 mph 14.8 mph 44 % 0.0 in
14:08 31.9 °F 18.1 °F 1009.0 in ESE 14.8 mph 14.8 mph 44 % 0.0 in
14:13 31.9 °F 18.1 °F 1009.0 in SE 13.0 mph 13.0 mph 44 % 0.0 in
14:18 31.9 °F 17.8 °F 1009.0 in East 14.8 mph 14.8 mph 43 % 0.0 in
14:23 32.1 °F 17.9 °F 1009.0 in East 14.8 mph 14.8 mph 43 % 0.0 in
14:28 31.7 °F 18.3 °F 1009.0 in ESE 16.7 mph 16.7 mph 45 % 0.0 in
14:33 31.8 °F 18.4 °F 1010.0 in ESE 16.7 mph 16.7 mph 45 % 0.0 in
14:38 31.7 °F 18.3 °F 1010.0 in ENE 14.8 mph 14.8 mph 45 % 0.0 in
14:43 31.7 °F 18.3 °F 1010.0 in ENE 20.4 mph 20.4 mph 45 % 0.0 in
14:48 31.7 °F 18.3 °F 1009.0 in ESE 19.5 mph 19.5 mph 45 % 0.0 in
14:53 31.4 °F 18.4 °F 1009.0 in ESE 22.2 mph 22.2 mph 46 % 0.0 in
14:58 31.3 °F 18.3 °F 1009.0 in ESE 16.7 mph 16.7 mph 46 % 0.0 in
15:03 31.4 °F 18.7 °F 1009.0 in ESE 22.2 mph 22.2 mph 47 % 0.0 in
15:08 31.2 °F 18.6 °F 1009.0 in ESE 18.5 mph 18.5 mph 47 % 0.0 in
15:13 31.0 °F 18.4 °F 1009.0 in ESE 24.1 mph 24.1 mph 47 % 0.0 in
15:18 31.2 °F 18.6 °F 1009.0 in SE 14.0 mph 14.0 mph 47 % 0.0 in
15:23 31.3 °F 18.7 °F 1009.0 in SE 16.7 mph 16.7 mph 47 % 0.0 in
15:28 31.1 °F 18.8 °F 1009.0 in ESE 16.4 mph 16.4 mph 48 % 0.0 in
15:33 31.2 °F 18.9 °F 1009.0 in ESE 16.7 mph 16.7 mph 48 % 0.0 in
15:38 31.4 °F 19.4 °F 1009.0 in ESE 7.4 mph 7.6 mph 49 % 0.0 in
15:43 31.4 °F 19.1 °F 1009.0 in ESE 16.7 mph 16.7 mph 48 % 0.0 in
15:48 31.3 °F 19.0 °F 1008.0 in ESE 13.0 mph 13.0 mph 48 % 0.0 in
15:53 31.5 °F 19.2 °F 1008.0 in ENE 18.5 mph 18.5 mph 48 % 0.0 in
15:58 31.6 °F 19.3 °F 1008.0 in NE 13.0 mph 13.0 mph 48 % 0.0 in
16:03 31.6 °F 19.3 °F 1008.0 in ESE 14.8 mph 14.8 mph 48 % 0.0 in
16:08 31.4 °F 18.7 °F 1008.0 in SE 13.0 mph 13.0 mph 47 % 0.0 in
16:13 31.5 °F 19.2 °F 1008.0 in ESE 13.0 mph 13.0 mph 48 % 0.0 in
16:18 31.4 °F 19.1 °F 1008.0 in ESE 11.1 mph 11.1 mph 48 % 0.0 in
16:23 31.8 °F 19.1 °F 1008.0 in ESE 11.1 mph 11.1 mph 47 % 0.0 in
16:24 31.8 °F 19.1 °F 1008.0 in ESE 11.1 mph 11.1 mph 47 % 0.0 in
16:29 31.6 °F 18.9 °F 1008.0 in ENE 16.7 mph 16.7 mph 47 % 0.0 in
16:34 31.8 °F 18.8 °F 1008.0 in ESE 16.7 mph 16.7 mph 46 % 0.0 in
16:39 31.8 °F 18.8 °F 1008.0 in ESE 13.7 mph 13.7 mph 46 % 0.0 in
16:44 32.1 °F 19.0 °F 1008.0 in ENE 13.0 mph 13.0 mph 46 % 0.0 in
16:49 31.9 °F 19.2 °F 1008.0 in SE 15.6 mph 15.6 mph 47 % 0.0 in
16:54 31.6 °F 18.9 °F 1008.0 in ENE 13.0 mph 13.0 mph 47 % 0.0 in
16:59 31.4 °F 18.7 °F 1008.0 in ESE 13.0 mph 13.0 mph 47 % 0.0 in
17:04 31.4 °F 18.7 °F 1008.0 in ESE 13.0 mph 13.0 mph 47 % 0.0 in
17:05 31.4 °F 18.7 °F 1008.0 in SSE 18.5 mph 18.5 mph 47 % 0.0 in
17:10 31.5 °F 18.8 °F 1008.0 in ESE 14.8 mph 14.8 mph 47 % 0.0 in
17:15 31.4 °F 18.7 °F 1008.0 in SE 20.6 mph 20.6 mph 47 % 0.0 in
17:20 31.0 °F 18.4 °F 1008.0 in East 13.0 mph 13.0 mph 47 % 0.0 in
17:25 31.1 °F 18.4 °F 1008.0 in ESE 16.7 mph 16.7 mph 47 % 0.0 in
17:30 31.2 °F 18.9 °F 1008.0 in ESE 9.3 mph 9.3 mph 48 % 0.0 in
17:35 31.0 °F 18.4 °F 1008.0 in East 11.1 mph 11.1 mph 47 % 0.0 in
17:40 30.8 °F 18.5 °F 1008.0 in ESE 16.7 mph 16.7 mph 48 % 0.0 in
17:45 30.3 °F 18.4 °F 1008.0 in East 14.5 mph 20.9 mph 49 % 0.0 in
17:50 30.3 °F 18.7 °F 1008.0 in ESE 4.8 mph 16.1 mph 50 % 0.0 in
17:55 30.2 °F 18.3 °F 1008.0 in ESE 11.3 mph 17.7 mph 49 % 0.0 in
18:00 29.9 °F 18.7 °F 1008.0 in ESE 13.0 mph 13.0 mph 51 % 0.0 in
18:05 29.7 °F 18.5 °F 1008.0 in ESE 16.4 mph 16.4 mph 51 % 0.0 in
18:10 29.6 °F 19.0 °F 1008.0 in ESE 9.3 mph 9.3 mph 53 % 0.0 in
18:15 29.6 °F 19.0 °F 1008.0 in ENE 16.7 mph 16.7 mph 53 % 0.0 in
18:20 29.3 °F 19.1 °F 1008.0 in East 18.5 mph 18.5 mph 54 % 0.0 in
18:25 29.2 °F 18.9 °F 1008.0 in East 9.7 mph 16.1 mph 54 % 0.0 in
18:30 29.0 °F 19.3 °F 1008.0 in NNE 13.0 mph 13.0 mph 56 % 0.0 in
18:35 29.1 °F 19.4 °F 1008.0 in NE 11.1 mph 11.1 mph 56 % 0.0 in
18:40 28.6 °F 19.5 °F 1008.0 in East 16.7 mph 16.7 mph 58 % 0.0 in
18:45 28.5 °F 19.7 °F 1008.0 in East 13.0 mph 13.0 mph 59 % 0.0 in
18:50 28.4 °F 19.3 °F 1008.0 in NE 13.0 mph 13.0 mph 58 % 0.0 in
18:55 28.2 °F 19.4 °F 1008.0 in East 13.0 mph 13.0 mph 59 % 0.0 in
19:00 28.0 °F 19.5 °F 1008.0 in ESE 11.4 mph 11.4 mph 60 % 0.0 in
19:05 28.0 °F 19.5 °F 1008.0 in ESE 14.0 mph 14.0 mph 60 % 0.0 in
19:10 28.1 °F 19.3 °F 1008.0 in ESE 13.0 mph 13.0 mph 59 % 0.0 in
19:15 28.2 °F 19.4 °F 1008.0 in ENE 13.0 mph 13.0 mph 59 % 0.0 in
19:20 28.0 °F 19.5 °F 1007.0 in ENE 16.7 mph 16.7 mph 60 % 0.0 in
19:25 28.1 °F 19.6 °F 1007.0 in East 9.3 mph 9.3 mph 60 % 0.0 in
19:30 27.9 °F 19.4 °F 1007.0 in ENE 13.0 mph 13.0 mph 60 % 0.0 in
19:35 27.7 °F 19.2 °F 1007.0 in ESE 13.0 mph 13.0 mph 60 % 0.0 in
19:40 27.7 °F 19.5 °F 1007.0 in ESE 11.1 mph 11.1 mph 61 % 0.0 in
19:45 27.6 °F 19.7 °F 1007.0 in East 16.7 mph 16.7 mph 62 % 0.0 in
19:50 27.5 °F 19.6 °F 1008.0 in ESE 11.1 mph 11.1 mph 62 % 0.0 in
19:55 27.5 °F 19.8 °F 1008.0 in East 9.3 mph 9.3 mph 63 % 0.0 in
20:00 27.4 °F 19.7 °F 1008.0 in ESE 13.0 mph 13.0 mph 63 % 0.0 in
20:05 27.3 °F 19.6 °F 1008.0 in ESE 13.0 mph 13.0 mph 63 % 0.0 in
20:10 27.2 °F 19.6 °F 1008.0 in East 14.8 mph 14.8 mph 63 % 0.0 in
20:15 27.1 °F 19.4 °F 1008.0 in ESE 8.7 mph 8.7 mph 63 % 0.0 in
20:20 27.0 °F 19.6 °F 1008.0 in ESE 13.0 mph 13.0 mph 64 % 0.0 in
20:25 27.0 °F 19.3 °F 1008.0 in East 9.3 mph 9.3 mph 63 % 0.0 in
20:26 27.0 °F 19.3 °F 1008.0 in ENE 9.3 mph 9.3 mph 63 % 0.0 in
20:31 26.9 °F 19.8 °F 1008.0 in ESE 9.3 mph 9.3 mph 65 % 0.0 in
20:36 26.8 °F 19.7 °F 1008.0 in East 6.9 mph 6.9 mph 65 % 0.0 in
20:41 26.7 °F 19.8 °F 1008.0 in ESE 5.6 mph 5.6 mph 66 % 0.0 in
20:46 26.6 °F 19.9 °F 1008.0 in SE 11.4 mph 11.4 mph 67 % 0.0 in
20:51 26.4 °F 19.8 °F 1008.0 in SSE 9.0 mph 9.0 mph 67 % 0.0 in
20:56 26.3 °F 19.9 °F 1008.0 in East 10.0 mph 10.0 mph 68 % 0.0 in
21:01 26.2 °F 20.1 °F 1008.0 in ESE 7.4 mph 7.4 mph 69 % 0.0 in
21:06 26.0 °F 19.9 °F 1008.0 in SE 11.1 mph 11.1 mph 69 % 0.0 in
21:11 26.0 °F 19.9 °F 1008.0 in ESE 11.1 mph 11.1 mph 69 % 0.0 in
21:16 25.9 °F 20.0 °F 1008.0 in ENE 11.1 mph 11.1 mph 70 % 0.0 in
21:21 25.8 °F 19.7 °F 1008.0 in NE 5.6 mph 5.6 mph 69 % 0.0 in
21:26 25.7 °F 19.6 °F 1008.0 in ENE 7.4 mph 7.4 mph 69 % 0.0 in
21:31 25.7 °F 19.6 °F 1008.0 in ENE 9.3 mph 9.3 mph 69 % 0.0 in
21:36 25.6 °F 19.7 °F 1008.0 in ENE 9.3 mph 9.3 mph 70 % 0.0 in
21:41 25.5 °F 19.8 °F 1008.0 in ESE 8.7 mph 8.7 mph 71 % 0.0 in
21:46 25.5 °F 19.8 °F 1008.0 in ENE 7.4 mph 7.4 mph 71 % 0.0 in
21:51 25.4 °F 20.0 °F 1008.0 in East 9.3 mph 9.3 mph 72 % 0.0 in
21:56 25.3 °F 19.9 °F 1008.0 in ENE 13.0 mph 13.0 mph 72 % 0.0 in
21:57 25.3 °F 20.1 °F 1008.0 in ESE 9.3 mph 9.3 mph 73 % 0.0 in
22:02 25.2 °F 20.0 °F 1008.0 in ESE 9.3 mph 9.3 mph 73 % 0.0 in
22:07 25.2 °F 20.2 °F 1008.0 in NNE 9.3 mph 9.3 mph 74 % 0.0 in
22:12 25.1 °F 20.1 °F 1008.0 in ENE 11.1 mph 11.1 mph 74 % 0.0 in
22:17 25.1 °F 20.3 °F 1008.0 in ENE 13.0 mph 13.0 mph 75 % 0.0 in
22:22 25.0 °F 20.3 °F 1008.0 in ENE 11.1 mph 11.1 mph 75 % 0.0 in
22:27 25.0 °F 20.5 °F 1008.0 in East 9.3 mph 9.3 mph 76 % 0.0 in
Meteo Sesrovires
Elogis d' Weather Underground - 2 mb

Guio original per  Jim McMurry - jmcmurry@mwt.net Adaptat per a la plantilla per  Wim van der Kuil - Leuven-Template.eu

Trobareu la nostra informacio del temps tambe a:

Weather Underground

AWEKAS